sensor_id;sensor_type;location;lat;lon;timestamp;P1;durP1;ratioP1;P2;durP2;ratioP2
5010;SDS011;2524;54.364;10.072;2022-08-01T00:00:30;3.50;;;3.40;;
5010;SDS011;2524;54.364;10.072;2022-08-01T00:02:56;6.13;;;3.93;;
5010;SDS011;2524;54.364;10.072;2022-08-01T00:05:22;4.03;;;3.73;;
5010;SDS011;2524;54.364;10.072;2022-08-01T00:07:47;4.00;;;3.80;;
5010;SDS011;2524;54.364;10.072;2022-08-01T00:10:14;4.20;;;4.00;;
5010;SDS011;2524;54.364;10.072;2022-08-01T00:12:41;4.10;;;3.80;;
5010;SDS011;2524;54.364;10.072;2022-08-01T00:15:08;4.77;;;4.40;;
5010;SDS011;2524;54.364;10.072;2022-08-01T00:17:36;4.27;;;4.07;;
5010;SDS011;2524;54.364;10.072;2022-08-01T00:20:02;4.93;;;4.60;;
5010;SDS011;2524;54.364;10.072;2022-08-01T00:22:32;4.73;;;4.43;;
5010;SDS011;2524;54.364;10.072;2022-08-01T00:24:58;4.43;;;4.23;;
5010;SDS011;2524;54.364;10.072;2022-08-01T00:27:24;4.60;;;4.30;;
5010;SDS011;2524;54.364;10.072;2022-08-01T00:29:50;6.60;;;5.23;;
5010;SDS011;2524;54.364;10.072;2022-08-01T00:32:16;4.10;;;3.90;;
5010;SDS011;2524;54.364;10.072;2022-08-01T00:34:41;8.73;;;5.20;;
5010;SDS011;2524;54.364;10.072;2022-08-01T00:37:07;6.40;;;5.90;;
5010;SDS011;2524;54.364;10.072;2022-08-01T00:39:33;6.87;;;6.27;;
5010;SDS011;2524;54.364;10.072;2022-08-01T00:42:09;6.33;;;5.83;;
5010;SDS011;2524;54.364;10.072;2022-08-01T00:44:35;7.77;;;7.03;;
5010;SDS011;2524;54.364;10.072;2022-08-01T00:47:02;7.57;;;6.90;;
5010;SDS011;2524;54.364;10.072;2022-08-01T00:49:28;7.60;;;6.90;;
5010;SDS011;2524;54.364;10.072;2022-08-01T00:51:54;7.90;;;7.30;;
5010;SDS011;2524;54.364;10.072;2022-08-01T00:54:20;9.53;;;8.53;;
5010;SDS011;2524;54.364;10.072;2022-08-01T00:56:47;9.90;;;9.00;;
5010;SDS011;2524;54.364;10.072;2022-08-01T00:59:13;8.80;;;8.00;;
5010;SDS011;2524;54.364;10.072;2022-08-01T01:01:41;9.33;;;8.50;;
5010;SDS011;2524;54.364;10.072;2022-08-01T01:04:07;11.67;;;10.53;;
5010;SDS011;2524;54.364;10.072;2022-08-01T01:06:52;11.87;;;10.40;;
5010;SDS011;2524;54.364;10.072;2022-08-01T01:17:34;16.83;;;14.43;;
5010;SDS011;2524;54.364;10.072;2022-08-01T01:20:05;17.90;;;13.07;;
5010;SDS011;2524;54.364;10.072;2022-08-01T01:22:41;16.00;;;11.93;;
5010;SDS011;2524;54.364;10.072;2022-08-01T01:30:51;19.60;;;14.60;;
5010;SDS011;2524;54.364;10.072;2022-08-01T01:33:20;14.20;;;11.50;;
5010;SDS011;2524;54.364;10.072;2022-08-01T01:35:51;12.23;;;10.87;;
5010;SDS011;2524;54.364;10.072;2022-08-01T01:38:23;14.77;;;12.70;;
5010;SDS011;2524;54.364;10.072;2022-08-01T01:40:52;13.40;;;10.63;;
5010;SDS011;2524;54.364;10.072;2022-08-01T01:43:20;17.20;;;13.33;;
5010;SDS011;2524;54.364;10.072;2022-08-01T01:45:48;12.37;;;10.80;;
5010;SDS011;2524;54.364;10.072;2022-08-01T01:48:15;10.30;;;9.07;;
5010;SDS011;2524;54.364;10.072;2022-08-01T01:50:44;11.30;;;10.10;;
5010;SDS011;2524;54.364;10.072;2022-08-01T01:53:12;11.20;;;9.80;;
5010;SDS011;2524;54.364;10.072;2022-08-01T01:55:39;10.80;;;9.53;;
5010;SDS011;2524;54.364;10.072;2022-08-01T01:58:06;11.87;;;10.27;;
5010;SDS011;2524;54.364;10.072;2022-08-01T02:00:33;9.73;;;8.63;;
5010;SDS011;2524;54.364;10.072;2022-08-01T02:03:01;12.90;;;10.50;;
5010;SDS011;2524;54.364;10.072;2022-08-01T02:05:30;10.20;;;9.03;;
5010;SDS011;2524;54.364;10.072;2022-08-01T02:07:59;10.53;;;8.93;;
5010;SDS011;2524;54.364;10.072;2022-08-01T02:10:27;9.47;;;8.53;;
5010;SDS011;2524;54.364;10.072;2022-08-01T02:12:55;12.57;;;10.30;;
5010;SDS011;2524;54.364;10.072;2022-08-01T02:15:26;13.50;;;10.07;;
5010;SDS011;2524;54.364;10.072;2022-08-01T02:17:54;12.43;;;10.13;;
5010;SDS011;2524;54.364;10.072;2022-08-01T02:20:22;9.73;;;8.70;;
5010;SDS011;2524;54.364;10.072;2022-08-01T02:22:49;10.30;;;9.27;;
5010;SDS011;2524;54.364;10.072;2022-08-01T02:30:26;10.83;;;9.70;;
5010;SDS011;2524;54.364;10.072;2022-08-01T02:32:59;10.80;;;9.40;;
5010;SDS011;2524;54.364;10.072;2022-08-01T02:35:33;9.37;;;8.47;;
5010;SDS011;2524;54.364;10.072;2022-08-01T02:38:03;13.43;;;11.03;;
5010;SDS011;2524;54.364;10.072;2022-08-01T02:40:33;13.20;;;10.50;;
5010;SDS011;2524;54.364;10.072;2022-08-01T02:43:03;14.03;;;11.30;;
5010;SDS011;2524;54.364;10.072;2022-08-01T02:45:30;10.30;;;9.30;;
5010;SDS011;2524;54.364;10.072;2022-08-01T02:48:01;12.90;;;11.40;;
5010;SDS011;2524;54.364;10.072;2022-08-01T02:50:34;8.53;;;7.63;;
5010;SDS011;2524;54.364;10.072;2022-08-01T02:53:02;8.77;;;7.87;;
5010;SDS011;2524;54.364;10.072;2022-08-01T02:55:31;6.80;;;6.20;;
5010;SDS011;2524;54.364;10.072;2022-08-01T02:57:59;9.30;;;7.77;;
5010;SDS011;2524;54.364;10.072;2022-08-01T03:00:26;8.47;;;7.57;;
5010;SDS011;2524;54.364;10.072;2022-08-01T03:02:54;9.47;;;7.60;;
5010;SDS011;2524;54.364;10.072;2022-08-01T03:05:21;9.27;;;8.30;;
5010;SDS011;2524;54.364;10.072;2022-08-01T03:07:50;15.93;;;11.83;;
5010;SDS011;2524;54.364;10.072;2022-08-01T03:10:17;14.43;;;9.87;;
5010;SDS011;2524;54.364;10.072;2022-08-01T03:12:44;16.53;;;13.20;;
5010;SDS011;2524;54.364;10.072;2022-08-01T03:15:11;14.47;;;12.97;;
5010;SDS011;2524;54.364;10.072;2022-08-01T03:17:38;13.17;;;9.63;;
5010;SDS011;2524;54.364;10.072;2022-08-01T03:20:08;11.43;;;9.27;;
5010;SDS011;2524;54.364;10.072;2022-08-01T03:22:37;14.67;;;8.97;;
5010;SDS011;2524;54.364;10.072;2022-08-01T03:25:05;9.17;;;8.27;;
5010;SDS011;2524;54.364;10.072;2022-08-01T03:27:32;13.03;;;10.37;;
5010;SDS011;2524;54.364;10.072;2022-08-01T03:29:59;11.27;;;10.10;;
5010;SDS011;2524;54.364;10.072;2022-08-01T03:32:29;9.57;;;8.77;;
5010;SDS011;2524;54.364;10.072;2022-08-01T03:34:56;10.50;;;9.20;;
5010;SDS011;2524;54.364;10.072;2022-08-01T03:37:25;9.67;;;8.83;;
5010;SDS011;2524;54.364;10.072;2022-08-01T03:40:09;15.40;;;9.20;;
5010;SDS011;2524;54.364;10.072;2022-08-01T03:42:44;7.80;;;7.20;;
5010;SDS011;2524;54.364;10.072;2022-08-01T03:45:15;9.77;;;8.87;;
5010;SDS011;2524;54.364;10.072;2022-08-01T03:47:47;9.70;;;7.40;;
5010;SDS011;2524;54.364;10.072;2022-08-01T03:50:16;12.07;;;10.57;;
5010;SDS011;2524;54.364;10.072;2022-08-01T03:52:46;10.30;;;9.30;;
5010;SDS011;2524;54.364;10.072;2022-08-01T03:55:13;10.77;;;8.70;;
5010;SDS011;2524;54.364;10.072;2022-08-01T03:57:41;11.10;;;8.77;;
5010;SDS011;2524;54.364;10.072;2022-08-01T04:00:08;7.60;;;7.00;;
5010;SDS011;2524;54.364;10.072;2022-08-01T04:02:35;8.47;;;7.50;;
5010;SDS011;2524;54.364;10.072;2022-08-01T04:05:02;8.60;;;7.03;;
5010;SDS011;2524;54.364;10.072;2022-08-01T04:07:30;8.93;;;6.87;;
5010;SDS011;2524;54.364;10.072;2022-08-01T04:09:57;7.40;;;6.80;;
5010;SDS011;2524;54.364;10.072;2022-08-01T04:12:23;12.30;;;8.10;;
5010;SDS011;2524;54.364;10.072;2022-08-01T04:14:49;9.13;;;6.90;;
5010;SDS011;2524;54.364;10.072;2022-08-01T04:17:15;10.23;;;7.10;;
5010;SDS011;2524;54.364;10.072;2022-08-01T04:19:42;9.30;;;5.90;;
5010;SDS011;2524;54.364;10.072;2022-08-01T04:22:09;6.07;;;5.57;;
5010;SDS011;2524;54.364;10.072;2022-08-01T04:24:36;5.10;;;4.80;;
5010;SDS011;2524;54.364;10.072;2022-08-01T04:27:03;5.10;;;4.70;;
5010;SDS011;2524;54.364;10.072;2022-08-01T04:29:36;7.07;;;5.37;;
5010;SDS011;2524;54.364;10.072;2022-08-01T04:32:03;8.50;;;6.07;;
5010;SDS011;2524;54.364;10.072;2022-08-01T04:34:32;9.10;;;5.50;;
5010;SDS011;2524;54.364;10.072;2022-08-01T04:36:58;6.17;;;5.67;;
5010;SDS011;2524;54.364;10.072;2022-08-01T04:39:26;5.90;;;5.30;;
5010;SDS011;2524;54.364;10.072;2022-08-01T04:41:56;4.53;;;4.23;;
5010;SDS011;2524;54.364;10.072;2022-08-01T04:44:24;4.40;;;4.13;;
5010;SDS011;2524;54.364;10.072;2022-08-01T04:46:51;5.20;;;4.80;;
5010;SDS011;2524;54.364;10.072;2022-08-01T04:49:19;5.40;;;4.23;;
5010;SDS011;2524;54.364;10.072;2022-08-01T04:51:52;5.07;;;4.67;;
5010;SDS011;2524;54.364;10.072;2022-08-01T04:54:29;4.93;;;4.20;;
5010;SDS011;2524;54.364;10.072;2022-08-01T04:56:58;5.63;;;5.23;;
5010;SDS011;2524;54.364;10.072;2022-08-01T04:59:32;4.50;;;4.13;;
5010;SDS011;2524;54.364;10.072;2022-08-01T05:02:10;9.57;;;6.17;;
5010;SDS011;2524;54.364;10.072;2022-08-01T05:04:40;4.90;;;4.60;;
5010;SDS011;2524;54.364;10.072;2022-08-01T05:07:06;4.53;;;4.07;;
5010;SDS011;2524;54.364;10.072;2022-08-01T05:09:33;5.43;;;4.77;;
5010;SDS011;2524;54.364;10.072;2022-08-01T05:11:59;4.53;;;4.27;;
5010;SDS011;2524;54.364;10.072;2022-08-01T05:14:27;4.27;;;3.97;;
5010;SDS011;2524;54.364;10.072;2022-08-01T05:16:53;4.60;;;4.17;;
5010;SDS011;2524;54.364;10.072;2022-08-01T05:19:19;10.03;;;7.67;;
5010;SDS011;2524;54.364;10.072;2022-08-01T05:21:46;7.97;;;5.83;;
5010;SDS011;2524;54.364;10.072;2022-08-01T05:24:12;7.03;;;6.33;;
5010;SDS011;2524;54.364;10.072;2022-08-01T05:26:40;6.57;;;5.80;;
5010;SDS011;2524;54.364;10.072;2022-08-01T05:29:05;5.67;;;5.27;;
5010;SDS011;2524;54.364;10.072;2022-08-01T05:31:31;4.60;;;4.30;;
5010;SDS011;2524;54.364;10.072;2022-08-01T05:33:59;6.33;;;5.70;;
5010;SDS011;2524;54.364;10.072;2022-08-01T05:36:25;4.77;;;4.47;;
5010;SDS011;2524;54.364;10.072;2022-08-01T05:38:51;6.03;;;5.40;;
5010;SDS011;2524;54.364;10.072;2022-08-01T05:41:17;6.77;;;5.93;;
5010;SDS011;2524;54.364;10.072;2022-08-01T05:43:42;5.03;;;4.63;;
5010;SDS011;2524;54.364;10.072;2022-08-01T05:46:08;5.70;;;4.90;;
5010;SDS011;2524;54.364;10.072;2022-08-01T05:48:33;6.87;;;6.27;;
5010;SDS011;2524;54.364;10.072;2022-08-01T05:50:59;5.53;;;5.03;;
5010;SDS011;2524;54.364;10.072;2022-08-01T05:53:24;5.60;;;5.10;;
5010;SDS011;2524;54.364;10.072;2022-08-01T05:55:50;4.07;;;3.77;;
5010;SDS011;2524;54.364;10.072;2022-08-01T05:58:16;5.20;;;4.70;;
5010;SDS011;2524;54.364;10.072;2022-08-01T06:00:41;3.27;;;3.17;;
5010;SDS011;2524;54.364;10.072;2022-08-01T06:03:08;3.63;;;3.43;;
5010;SDS011;2524;54.364;10.072;2022-08-01T06:05:33;4.80;;;3.50;;
5010;SDS011;2524;54.364;10.072;2022-08-01T06:07:59;6.13;;;4.50;;
5010;SDS011;2524;54.364;10.072;2022-08-01T06:10:24;3.83;;;3.50;;
5010;SDS011;2524;54.364;10.072;2022-08-01T06:12:50;4.40;;;3.53;;
5010;SDS011;2524;54.364;10.072;2022-08-01T06:15:15;5.87;;;3.83;;
5010;SDS011;2524;54.364;10.072;2022-08-01T06:17:41;4.97;;;4.30;;
5010;SDS011;2524;54.364;10.072;2022-08-01T06:20:07;3.73;;;3.53;;
5010;SDS011;2524;54.364;10.072;2022-08-01T06:22:33;4.33;;;4.03;;
5010;SDS011;2524;54.364;10.072;2022-08-01T06:24:59;6.10;;;4.17;;
5010;SDS011;2524;54.364;10.072;2022-08-01T06:27:24;4.20;;;3.80;;
5010;SDS011;2524;54.364;10.072;2022-08-01T06:29:50;4.63;;;3.50;;
5010;SDS011;2524;54.364;10.072;2022-08-01T06:32:18;5.33;;;3.50;;
5010;SDS011;2524;54.364;10.072;2022-08-01T06:34:51;6.73;;;3.60;;
5010;SDS011;2524;54.364;10.072;2022-08-01T06:37:17;2.80;;;2.70;;
5010;SDS011;2524;54.364;10.072;2022-08-01T06:39:42;3.77;;;3.27;;
5010;SDS011;2524;54.364;10.072;2022-08-01T06:42:08;2.80;;;2.57;;
5010;SDS011;2524;54.364;10.072;2022-08-01T06:44:34;3.70;;;3.00;;
5010;SDS011;2524;54.364;10.072;2022-08-01T06:47:00;2.33;;;2.23;;
5010;SDS011;2524;54.364;10.072;2022-08-01T06:49:25;2.60;;;2.47;;
5010;SDS011;2524;54.364;10.072;2022-08-01T06:51:51;3.93;;;2.73;;
5010;SDS011;2524;54.364;10.072;2022-08-01T06:54:16;2.17;;;2.10;;
5010;SDS011;2524;54.364;10.072;2022-08-01T06:56:42;2.97;;;2.67;;
5010;SDS011;2524;54.364;10.072;2022-08-01T06:59:08;2.73;;;2.53;;
5010;SDS011;2524;54.364;10.072;2022-08-01T07:01:34;3.43;;;3.00;;
5010;SDS011;2524;54.364;10.072;2022-08-01T07:04:00;2.47;;;2.37;;
5010;SDS011;2524;54.364;10.072;2022-08-01T07:06:25;6.00;;;2.50;;
5010;SDS011;2524;54.364;10.072;2022-08-01T07:08:51;2.97;;;2.20;;
5010;SDS011;2524;54.364;10.072;2022-08-01T07:11:18;3.10;;;2.20;;
5010;SDS011;2524;54.364;10.072;2022-08-01T07:13:44;2.17;;;2.07;;
5010;SDS011;2524;54.364;10.072;2022-08-01T07:16:10;11.30;;;2.50;;
5010;SDS011;2524;54.364;10.072;2022-08-01T07:18:40;5.57;;;2.10;;
5010;SDS011;2524;54.364;10.072;2022-08-01T07:21:06;2.13;;;2.03;;
5010;SDS011;2524;54.364;10.072;2022-08-01T07:23:32;3.50;;;2.47;;
5010;SDS011;2524;54.364;10.072;2022-08-01T07:25:58;3.10;;;2.37;;
5010;SDS011;2524;54.364;10.072;2022-08-01T07:28:26;5.90;;;2.97;;
5010;SDS011;2524;54.364;10.072;2022-08-01T07:30:52;2.20;;;2.00;;
5010;SDS011;2524;54.364;10.072;2022-08-01T07:33:18;4.17;;;2.80;;
5010;SDS011;2524;54.364;10.072;2022-08-01T07:35:43;3.07;;;2.57;;
5010;SDS011;2524;54.364;10.072;2022-08-01T07:38:09;7.60;;;2.60;;
5010;SDS011;2524;54.364;10.072;2022-08-01T07:40:35;5.80;;;2.60;;
5010;SDS011;2524;54.364;10.072;2022-08-01T07:43:01;2.93;;;2.07;;
5010;SDS011;2524;54.364;10.072;2022-08-01T07:45:26;4.47;;;2.47;;
5010;SDS011;2524;54.364;10.072;2022-08-01T07:47:52;9.87;;;2.60;;
5010;SDS011;2524;54.364;10.072;2022-08-01T07:50:18;13.47;;;2.67;;
5010;SDS011;2524;54.364;10.072;2022-08-01T07:52:44;4.47;;;2.90;;
5010;SDS011;2524;54.364;10.072;2022-08-01T07:55:10;5.67;;;2.57;;
5010;SDS011;2524;54.364;10.072;2022-08-01T07:57:37;5.47;;;2.70;;
5010;SDS011;2524;54.364;10.072;2022-08-01T08:00:04;7.47;;;2.87;;
5010;SDS011;2524;54.364;10.072;2022-08-01T08:02:33;8.17;;;2.60;;
5010;SDS011;2524;54.364;10.072;2022-08-01T08:04:59;5.83;;;2.50;;
5010;SDS011;2524;54.364;10.072;2022-08-01T08:07:25;9.20;;;2.30;;
5010;SDS011;2524;54.364;10.072;2022-08-01T08:09:50;6.20;;;2.53;;
5010;SDS011;2524;54.364;10.072;2022-08-01T08:12:16;6.70;;;2.60;;
5010;SDS011;2524;54.364;10.072;2022-08-01T08:14:41;8.80;;;2.50;;
5010;SDS011;2524;54.364;10.072;2022-08-01T08:17:07;8.07;;;2.57;;
5010;SDS011;2524;54.364;10.072;2022-08-01T08:19:32;11.20;;;3.03;;
5010;SDS011;2524;54.364;10.072;2022-08-01T08:22:01;5.07;;;2.30;;
5010;SDS011;2524;54.364;10.072;2022-08-01T08:24:27;11.33;;;2.93;;
5010;SDS011;2524;54.364;10.072;2022-08-01T08:26:57;10.67;;;2.67;;
5010;SDS011;2524;54.364;10.072;2022-08-01T08:29:23;5.40;;;2.10;;
5010;SDS011;2524;54.364;10.072;2022-08-01T08:31:51;7.67;;;2.60;;
5010;SDS011;2524;54.364;10.072;2022-08-01T08:34:17;7.20;;;2.30;;
5010;SDS011;2524;54.364;10.072;2022-08-01T08:36:43;10.37;;;2.30;;
5010;SDS011;2524;54.364;10.072;2022-08-01T08:39:09;6.17;;;2.20;;
5010;SDS011;2524;54.364;10.072;2022-08-01T08:41:34;4.73;;;2.03;;
5010;SDS011;2524;54.364;10.072;2022-08-01T08:44:01;8.50;;;2.70;;
5010;SDS011;2524;54.364;10.072;2022-08-01T08:46:28;8.00;;;2.43;;
5010;SDS011;2524;54.364;10.072;2022-08-01T08:48:57;8.13;;;3.00;;
5010;SDS011;2524;54.364;10.072;2022-08-01T08:51:24;4.00;;;1.93;;
5010;SDS011;2524;54.364;10.072;2022-08-01T08:53:52;9.17;;;2.70;;
5010;SDS011;2524;54.364;10.072;2022-08-01T08:56:20;8.30;;;2.70;;
5010;SDS011;2524;54.364;10.072;2022-08-01T08:58:48;9.23;;;2.73;;
5010;SDS011;2524;54.364;10.072;2022-08-01T09:01:15;5.07;;;2.20;;
5010;SDS011;2524;54.364;10.072;2022-08-01T09:03:42;12.70;;;2.77;;
5010;SDS011;2524;54.364;10.072;2022-08-01T09:06:09;9.80;;;3.40;;
5010;SDS011;2524;54.364;10.072;2022-08-01T09:08:35;10.07;;;3.03;;
5010;SDS011;2524;54.364;10.072;2022-08-01T09:11:02;5.30;;;2.30;;
5010;SDS011;2524;54.364;10.072;2022-08-01T09:13:28;4.23;;;2.27;;
5010;SDS011;2524;54.364;10.072;2022-08-01T09:15:54;4.17;;;2.10;;
5010;SDS011;2524;54.364;10.072;2022-08-01T09:23:31;5.60;;;2.77;;
5010;SDS011;2524;54.364;10.072;2022-08-01T09:25:57;5.43;;;2.30;;
5010;SDS011;2524;54.364;10.072;2022-08-01T09:28:27;5.60;;;2.40;;
5010;SDS011;2524;54.364;10.072;2022-08-01T09:30:53;9.43;;;2.93;;
5010;SDS011;2524;54.364;10.072;2022-08-01T09:33:24;8.20;;;2.30;;
5010;SDS011;2524;54.364;10.072;2022-08-01T09:35:54;8.90;;;2.27;;
5010;SDS011;2524;54.364;10.072;2022-08-01T09:38:24;5.37;;;2.00;;
5010;SDS011;2524;54.364;10.072;2022-08-01T09:43:20;5.00;;;2.03;;
5010;SDS011;2524;54.364;10.072;2022-08-01T09:45:48;5.87;;;2.03;;
5010;SDS011;2524;54.364;10.072;2022-08-01T09:48:14;9.53;;;2.37;;
5010;SDS011;2524;54.364;10.072;2022-08-01T09:50:43;4.43;;;1.67;;
5010;SDS011;2524;54.364;10.072;2022-08-01T09:53:14;8.67;;;1.67;;
5010;SDS011;2524;54.364;10.072;2022-08-01T09:55:40;4.70;;;1.80;;
5010;SDS011;2524;54.364;10.072;2022-08-01T09:58:06;5.63;;;1.87;;
5010;SDS011;2524;54.364;10.072;2022-08-01T10:00:33;3.43;;;1.60;;
5010;SDS011;2524;54.364;10.072;2022-08-01T10:03:00;6.63;;;2.40;;
5010;SDS011;2524;54.364;10.072;2022-08-01T10:05:47;4.90;;;1.60;;
5010;SDS011;2524;54.364;10.072;2022-08-01T10:08:13;3.33;;;2.00;;
5010;SDS011;2524;54.364;10.072;2022-08-01T10:10:38;4.57;;;1.83;;
5010;SDS011;2524;54.364;10.072;2022-08-01T10:13:04;3.43;;;1.80;;
5010;SDS011;2524;54.364;10.072;2022-08-01T10:15:30;5.87;;;1.60;;
5010;SDS011;2524;54.364;10.072;2022-08-01T10:17:58;3.17;;;1.60;;
5010;SDS011;2524;54.364;10.072;2022-08-01T10:20:32;7.90;;;2.10;;
5010;SDS011;2524;54.364;10.072;2022-08-01T10:22:59;6.70;;;1.90;;
5010;SDS011;2524;54.364;10.072;2022-08-01T10:25:27;3.40;;;1.80;;
5010;SDS011;2524;54.364;10.072;2022-08-01T10:27:56;4.43;;;1.80;;
5010;SDS011;2524;54.364;10.072;2022-08-01T10:30:23;4.40;;;1.90;;
5010;SDS011;2524;54.364;10.072;2022-08-01T10:32:49;4.37;;;2.10;;
5010;SDS011;2524;54.364;10.072;2022-08-01T10:35:19;3.10;;;1.70;;
5010;SDS011;2524;54.364;10.072;2022-08-01T10:37:45;3.00;;;1.50;;
5010;SDS011;2524;54.364;10.072;2022-08-01T10:40:12;3.63;;;1.80;;
5010;SDS011;2524;54.364;10.072;2022-08-01T10:42:45;6.97;;;1.80;;
5010;SDS011;2524;54.364;10.072;2022-08-01T10:45:12;4.10;;;1.80;;
5010;SDS011;2524;54.364;10.072;2022-08-01T10:53:12;3.80;;;1.80;;
5010;SDS011;2524;54.364;10.072;2022-08-01T10:55:50;3.90;;;2.00;;
5010;SDS011;2524;54.364;10.072;2022-08-01T11:01:24;4.60;;;1.83;;
5010;SDS011;2524;54.364;10.072;2022-08-01T11:03:56;5.50;;;1.90;;
5010;SDS011;2524;54.364;10.072;2022-08-01T11:09:02;2.10;;;1.40;;
5010;SDS011;2524;54.364;10.072;2022-08-01T11:17:34;5.43;;;2.07;;
5010;SDS011;2524;54.364;10.072;2022-08-01T11:20:22;3.10;;;1.97;;
5010;SDS011;2524;54.364;10.072;2022-08-01T11:23:47;4.53;;;1.63;;
5010;SDS011;2524;54.364;10.072;2022-08-01T11:26:21;4.77;;;1.80;;
5010;SDS011;2524;54.364;10.072;2022-08-01T11:29:10;2.07;;;1.50;;
5010;SDS011;2524;54.364;10.072;2022-08-01T11:31:40;3.10;;;1.40;;
5010;SDS011;2524;54.364;10.072;2022-08-01T11:34:06;6.13;;;2.00;;
5010;SDS011;2524;54.364;10.072;2022-08-01T11:36:32;6.80;;;2.03;;
5010;SDS011;2524;54.364;10.072;2022-08-01T11:41:24;3.47;;;1.60;;
5010;SDS011;2524;54.364;10.072;2022-08-01T11:43:58;3.80;;;1.50;;
5010;SDS011;2524;54.364;10.072;2022-08-01T11:46:55;1.93;;;1.43;;
5010;SDS011;2524;54.364;10.072;2022-08-01T11:52:00;3.60;;;1.37;;
5010;SDS011;2524;54.364;10.072;2022-08-01T11:54:40;4.97;;;1.70;;
5010;SDS011;2524;54.364;10.072;2022-08-01T11:57:09;4.57;;;1.60;;
5010;SDS011;2524;54.364;10.072;2022-08-01T11:59:39;1.93;;;1.20;;
5010;SDS011;2524;54.364;10.072;2022-08-01T12:02:17;3.45;;;1.70;;
5010;SDS011;2524;54.364;10.072;2022-08-01T12:04:48;6.27;;;2.40;;
5010;SDS011;2524;54.364;10.072;2022-08-01T12:07:15;3.57;;;1.20;;
5010;SDS011;2524;54.364;10.072;2022-08-01T12:09:41;3.77;;;2.03;;
5010;SDS011;2524;54.364;10.072;2022-08-01T12:12:08;6.00;;;2.03;;
5010;SDS011;2524;54.364;10.072;2022-08-01T12:14:35;2.97;;;1.50;;
5010;SDS011;2524;54.364;10.072;2022-08-01T12:17:00;4.30;;;1.87;;
5010;SDS011;2524;54.364;10.072;2022-08-01T12:19:28;6.03;;;1.63;;
5010;SDS011;2524;54.364;10.072;2022-08-01T12:22:06;3.90;;;1.67;;
5010;SDS011;2524;54.364;10.072;2022-08-01T12:24:39;4.10;;;1.63;;
5010;SDS011;2524;54.364;10.072;2022-08-01T12:27:07;7.80;;;1.70;;
5010;SDS011;2524;54.364;10.072;2022-08-01T12:29:35;8.13;;;2.17;;
5010;SDS011;2524;54.364;10.072;2022-08-01T12:32:02;7.47;;;1.83;;
5010;SDS011;2524;54.364;10.072;2022-08-01T12:34:29;3.43;;;1.50;;
5010;SDS011;2524;54.364;10.072;2022-08-01T12:36:58;3.73;;;1.60;;
5010;SDS011;2524;54.364;10.072;2022-08-01T12:39:29;3.77;;;1.93;;
5010;SDS011;2524;54.364;10.072;2022-08-01T12:41:58;1.47;;;1.30;;
5010;SDS011;2524;54.364;10.072;2022-08-01T12:44:24;2.53;;;1.47;;
5010;SDS011;2524;54.364;10.072;2022-08-01T12:46:54;3.03;;;1.40;;
5010;SDS011;2524;54.364;10.072;2022-08-01T12:49:21;2.90;;;1.30;;
5010;SDS011;2524;54.364;10.072;2022-08-01T12:51:47;3.33;;;1.47;;
5010;SDS011;2524;54.364;10.072;2022-08-01T12:54:14;3.93;;;1.53;;
5010;SDS011;2524;54.364;10.072;2022-08-01T12:56:39;4.43;;;1.53;;
5010;SDS011;2524;54.364;10.072;2022-08-01T12:59:21;2.57;;;1.90;;
5010;SDS011;2524;54.364;10.072;2022-08-01T13:01:52;4.70;;;1.60;;
5010;SDS011;2524;54.364;10.072;2022-08-01T13:04:21;3.67;;;1.70;;
5010;SDS011;2524;54.364;10.072;2022-08-01T13:06:48;5.27;;;1.70;;
5010;SDS011;2524;54.364;10.072;2022-08-01T13:09:17;3.73;;;1.60;;
5010;SDS011;2524;54.364;10.072;2022-08-01T13:11:44;4.00;;;1.73;;
5010;SDS011;2524;54.364;10.072;2022-08-01T13:14:10;1.73;;;1.10;;
5010;SDS011;2524;54.364;10.072;2022-08-01T13:16:51;3.60;;;1.63;;
5010;SDS011;2524;54.364;10.072;2022-08-01T13:19:17;2.60;;;1.40;;
5010;SDS011;2524;54.364;10.072;2022-08-01T13:21:52;4.87;;;1.90;;
5010;SDS011;2524;54.364;10.072;2022-08-01T13:24:23;2.80;;;1.60;;
5010;SDS011;2524;54.364;10.072;2022-08-01T13:29:17;4.53;;;1.97;;
5010;SDS011;2524;54.364;10.072;2022-08-01T13:31:44;1.50;;;1.20;;
5010;SDS011;2524;54.364;10.072;2022-08-01T13:34:10;2.73;;;1.30;;
5010;SDS011;2524;54.364;10.072;2022-08-01T13:36:37;7.27;;;1.53;;
5010;SDS011;2524;54.364;10.072;2022-08-01T13:39:06;2.70;;;1.40;;
5010;SDS011;2524;54.364;10.072;2022-08-01T13:41:51;8.10;;;2.60;;
5010;SDS011;2524;54.364;10.072;2022-08-01T13:44:17;3.87;;;1.83;;
5010;SDS011;2524;54.364;10.072;2022-08-01T13:46:43;1.60;;;1.50;;
5010;SDS011;2524;54.364;10.072;2022-08-01T13:49:09;4.33;;;1.73;;
5010;SDS011;2524;54.364;10.072;2022-08-01T13:51:36;3.27;;;1.40;;
5010;SDS011;2524;54.364;10.072;2022-08-01T13:54:03;3.40;;;1.50;;
5010;SDS011;2524;54.364;10.072;2022-08-01T13:56:30;2.10;;;1.47;;
5010;SDS011;2524;54.364;10.072;2022-08-01T13:58:56;5.50;;;1.57;;
5010;SDS011;2524;54.364;10.072;2022-08-01T14:01:22;4.23;;;2.03;;
5010;SDS011;2524;54.364;10.072;2022-08-01T14:03:48;17.13;;;2.57;;
5010;SDS011;2524;54.364;10.072;2022-08-01T14:06:16;3.57;;;1.50;;
5010;SDS011;2524;54.364;10.072;2022-08-01T14:08:42;6.43;;;1.83;;
5010;SDS011;2524;54.364;10.072;2022-08-01T14:11:08;4.60;;;2.00;;
5010;SDS011;2524;54.364;10.072;2022-08-01T14:13:34;5.67;;;2.27;;
5010;SDS011;2524;54.364;10.072;2022-08-01T14:16:03;3.40;;;1.37;;
5010;SDS011;2524;54.364;10.072;2022-08-01T14:18:29;3.57;;;1.67;;
5010;SDS011;2524;54.364;10.072;2022-08-01T14:20:55;3.33;;;1.67;;
5010;SDS011;2524;54.364;10.072;2022-08-01T14:23:20;11.80;;;2.07;;
5010;SDS011;2524;54.364;10.072;2022-08-01T14:25:46;1.60;;;1.20;;
5010;SDS011;2524;54.364;10.072;2022-08-01T14:28:11;3.43;;;1.60;;
5010;SDS011;2524;54.364;10.072;2022-08-01T14:30:37;2.70;;;1.43;;
5010;SDS011;2524;54.364;10.072;2022-08-01T14:33:03;5.40;;;1.63;;
5010;SDS011;2524;54.364;10.072;2022-08-01T14:35:31;2.70;;;1.37;;
5010;SDS011;2524;54.364;10.072;2022-08-01T14:37:56;6.43;;;2.57;;
5010;SDS011;2524;54.364;10.072;2022-08-01T14:40:22;1.53;;;1.20;;
5010;SDS011;2524;54.364;10.072;2022-08-01T14:42:48;1.70;;;1.40;;
5010;SDS011;2524;54.364;10.072;2022-08-01T14:45:13;1.87;;;1.10;;
5010;SDS011;2524;54.364;10.072;2022-08-01T14:47:39;1.23;;;1.20;;
5010;SDS011;2524;54.364;10.072;2022-08-01T14:50:08;4.67;;;1.30;;
5010;SDS011;2524;54.364;10.072;2022-08-01T14:52:36;4.37;;;1.63;;
5010;SDS011;2524;54.364;10.072;2022-08-01T14:55:04;4.00;;;1.37;;
5010;SDS011;2524;54.364;10.072;2022-08-01T14:57:31;7.10;;;2.07;;
5010;SDS011;2524;54.364;10.072;2022-08-01T14:59:57;3.47;;;1.60;;
5010;SDS011;2524;54.364;10.072;2022-08-01T15:02:25;3.70;;;1.50;;
5010;SDS011;2524;54.364;10.072;2022-08-01T15:04:50;1.30;;;1.20;;
5010;SDS011;2524;54.364;10.072;2022-08-01T15:07:16;9.13;;;1.87;;
5010;SDS011;2524;54.364;10.072;2022-08-01T15:09:43;6.43;;;1.57;;
5010;SDS011;2524;54.364;10.072;2022-08-01T15:12:10;4.30;;;1.47;;
5010;SDS011;2524;54.364;10.072;2022-08-01T15:14:37;4.50;;;1.73;;
5010;SDS011;2524;54.364;10.072;2022-08-01T15:17:18;2.67;;;1.20;;
5010;SDS011;2524;54.364;10.072;2022-08-01T15:19:49;5.33;;;1.67;;
5010;SDS011;2524;54.364;10.072;2022-08-01T15:22:16;5.93;;;1.73;;
5010;SDS011;2524;54.364;10.072;2022-08-01T15:24:43;2.90;;;1.70;;
5010;SDS011;2524;54.364;10.072;2022-08-01T15:27:08;6.30;;;1.40;;
5010;SDS011;2524;54.364;10.072;2022-08-01T15:29:35;5.53;;;1.67;;
5010;SDS011;2524;54.364;10.072;2022-08-01T15:32:02;5.50;;;1.60;;
5010;SDS011;2524;54.364;10.072;2022-08-01T15:34:29;9.50;;;2.23;;
5010;SDS011;2524;54.364;10.072;2022-08-01T15:36:55;6.13;;;1.50;;
5010;SDS011;2524;54.364;10.072;2022-08-01T15:39:22;5.83;;;1.47;;
5010;SDS011;2524;54.364;10.072;2022-08-01T15:41:48;7.93;;;2.07;;
5010;SDS011;2524;54.364;10.072;2022-08-01T15:44:14;2.33;;;1.40;;
5010;SDS011;2524;54.364;10.072;2022-08-01T15:46:40;4.23;;;1.57;;
5010;SDS011;2524;54.364;10.072;2022-08-01T15:49:06;2.07;;;1.27;;
5010;SDS011;2524;54.364;10.072;2022-08-01T15:51:32;4.50;;;1.43;;
5010;SDS011;2524;54.364;10.072;2022-08-01T15:53:58;3.30;;;1.50;;